Time;durP1;ratioP1;P1;durP2;ratioP2;P2;SDS_P1;SDS_P2;PMS_P1;PMS_P2;Temp;Humidity;BMP_temperature;BMP_pressure;BME280_temperature;BME280_humidity;BME280_pressure;Samples;Min_cycle;Max_cycle;Signal;HPM_P1;HPM_P2
2021/12/09 00:02:25;;;;;;;64.53;29.05;;;;;;;0.36;100.00;98145.81;5001490;28;20025;-77
2021/12/09 00:04:54;;;;;;;64.05;29.92;;;;;;;0.34;100.00;98143.34;4999744;28;20109;-76
2021/12/09 00:07:19;;;;;;;58.28;28.23;;;;;;;0.33;100.00;98133.91;5002800;28;20168;-76
2021/12/09 00:09:45;;;;;;;81.95;26.88;;;;;;;0.33;100.00;98136.50;4999739;28;20113;-77
2021/12/09 00:12:10;;;;;;;59.67;27.52;;;;;;;0.31;100.00;98128.00;5002376;28;20533;-76
2021/12/09 00:14:36;;;;;;;70.03;27.90;;;;;;;0.32;100.00;98124.47;5000502;28;20037;-77
2021/12/09 00:17:07;;;;;;;76.47;27.08;;;;;;;0.31;100.00;98127.16;4999239;28;20069;-77
2021/12/09 00:19:33;;;;;;;61.58;27.77;;;;;;;0.30;100.00;98131.53;5001328;28;20038;-77
2021/12/09 00:21:59;;;;;;;56.65;27.65;;;;;;;0.32;100.00;98128.81;5000188;28;20048;-77
2021/12/09 00:24:25;;;;;;;78.65;26.83;;;;;;;0.36;100.00;98120.69;5002496;28;20033;-77
2021/12/09 00:26:52;;;;;;;83.78;28.80;;;;;;;0.32;100.00;98121.88;4999450;28;20445;-77
2021/12/09 00:29:18;;;;;;;59.15;26.58;;;;;;;0.24;100.00;98116.41;4999382;28;20046;-77
2021/12/09 00:31:47;;;;;;;76.93;28.98;;;;;;;0.19;100.00;98121.13;5001804;28;20036;-76
2021/12/09 00:34:13;;;;;;;86.60;27.88;;;;;;;0.13;100.00;98124.16;4998473;28;20030;-76
2021/12/09 00:36:42;;;;;;;65.15;29.33;;;;;;;0.11;100.00;98114.84;5003072;28;20045;-75
2021/12/09 00:39:10;;;;;;;69.43;28.33;;;;;;;0.07;100.00;98122.00;5000289;28;20034;-75
2021/12/09 00:41:36;;;;;;;53.20;25.90;;;;;;;0.05;100.00;98116.13;5000633;28;20057;-77
2021/12/09 00:44:02;;;;;;;77.28;28.52;;;;;;;0.05;100.00;98126.50;4999301;28;20054;-76
2021/12/09 00:46:27;;;;;;;79.22;28.20;;;;;;;0.07;100.00;98119.41;5001792;28;20092;-75
2021/12/09 00:48:53;;;;;;;66.18;28.75;;;;;;;0.03;100.00;98128.38;4998689;28;20446;-76
2021/12/09 00:51:18;;;;;;;58.30;27.95;;;;;;;0.06;100.00;98124.75;5002205;28;20029;-75
2021/12/09 00:53:44;;;;;;;63.63;29.17;;;;;;;0.06;100.00;98133.31;4997770;28;20030;-76
2021/12/09 00:56:12;;;;;;;61.80;28.58;;;;;;;0.08;100.00;98115.88;5001760;28;20382;-76
2021/12/09 00:58:40;;;;;;;62.83;28.65;;;;;;;0.14;100.00;98125.81;5000055;28;20085;-75
2021/12/09 01:01:06;;;;;;;62.17;31.05;;;;;;;0.11;100.00;98120.88;4999843;28;20535;-75
2021/12/09 01:03:34;;;;;;;56.33;28.95;;;;;;;0.12;100.00;98122.50;5000627;28;20374;-76
2021/12/09 01:06:00;;;;;;;58.33;29.67;;;;;;;0.15;100.00;98116.28;5003429;28;20787;-77
2021/12/09 01:08:25;;;;;;;71.20;30.35;;;;;;;0.18;100.00;98116.84;5001706;28;20168;-76
2021/12/09 01:10:51;;;;;;;65.20;29.63;;;;;;;0.19;100.00;98113.34;4998704;28;20034;-76
2021/12/09 01:13:16;;;;;;;145.15;32.28;;;;;;;0.19;100.00;98107.31;4999124;28;20081;-75
2021/12/09 01:15:42;;;;;;;57.25;28.85;;;;;;;0.15;100.00;98117.09;5001626;28;20026;-76
2021/12/09 01:18:08;;;;;;;62.97;29.02;;;;;;;0.16;100.00;98121.34;4999976;28;20030;-76
2021/12/09 01:20:34;;;;;;;79.95;29.73;;;;;;;0.15;100.00;98127.47;4999864;28;20809;-77
2021/12/09 01:23:02;;;;;;;66.00;29.35;;;;;;;0.13;100.00;98123.31;5001036;28;20041;-76
2021/12/09 01:25:28;;;;;;;66.28;27.92;;;;;;;0.03;100.00;98128.38;4999536;28;20100;-76
2021/12/09 01:27:57;;;;;;;51.90;28.13;;;;;;;-0.06;100.00;98135.03;5001652;28;20030;-76
2021/12/09 01:30:24;;;;;;;60.78;30.55;;;;;;;-0.02;100.00;98114.91;4997751;28;20030;-76
2021/12/09 01:32:54;;;;;;;55.97;29.88;;;;;;;0.00;100.00;98115.66;5002139;28;20042;-76
2021/12/09 01:35:28;;;;;;;60.33;30.63;;;;;;;0.05;100.00;98125.69;5000959;28;20034;-75
2021/12/09 01:37:58;;;;;;;55.95;29.60;;;;;;;0.08;100.00;98122.84;5000830;28;20052;-76
2021/12/09 01:40:25;;;;;;;53.83;29.13;;;;;;;0.09;100.00;98122.75;4997613;28;20113;-76
2021/12/09 01:42:51;;;;;;;53.90;29.58;;;;;;;0.07;100.00;98122.00;5003121;28;20041;-76
2021/12/09 01:45:17;;;;;;;53.50;29.08;;;;;;;0.04;100.00;98124.84;5002483;28;20488;-76
2021/12/09 01:47:42;;;;;;;51.13;29.27;;;;;;;0.07;100.00;98119.41;5005019;28;20493;-76
2021/12/09 01:50:10;;;;;;;47.53;27.80;;;;;;;0.10;100.00;98127.00;5003201;28;20048;-76
2021/12/09 01:52:36;;;;;;;52.33;28.58;;;;;;;0.12;100.00;98126.88;5002066;28;20475;-76
2021/12/09 01:55:04;;;;;;;48.15;28.30;;;;;;;0.15;100.00;98126.66;5000693;28;20033;-76
2021/12/09 01:57:30;;;;;;;46.88;26.65;;;;;;;0.12;100.00;98127.69;5001125;28;20074;-76
2021/12/09 01:59:55;;;;;;;46.70;28.00;;;;;;;0.15;100.00;98124.06;5003443;28;20112;-75
2021/12/09 02:02:21;;;;;;;47.80;27.52;;;;;;;0.13;100.00;98124.16;5001893;28;20122;-75
2021/12/09 02:04:47;;;;;;;47.20;28.70;;;;;;;0.08;100.00;98126.25;5001827;28;20034;-76
2021/12/09 02:07:13;;;;;;;48.40;28.98;;;;;;;0.07;100.00;98124.59;5008061;28;20029;-76
2021/12/09 02:09:38;;;;;;;48.63;28.20;;;;;;;0.00;100.00;98123.44;5002576;28;20116;-76
2021/12/09 02:12:04;;;;;;;51.20;29.35;;;;;;;-0.08;100.00;98125.75;5002217;28;20403;-76
2021/12/09 02:14:30;;;;;;;49.90;28.67;;;;;;;-0.09;100.00;98114.53;5004154;28;20130;-76
2021/12/09 02:16:56;;;;;;;54.65;30.77;;;;;;;-0.10;100.00;98112.03;5002013;28;20129;-76
2021/12/09 02:19:22;;;;;;;53.80;29.30;;;;;;;-0.13;100.00;98107.94;5004019;28;20034;-76
2021/12/09 02:21:47;;;;;;;51.08;28.83;;;;;;;-0.09;100.00;98119.72;5000778;28;20079;-75
2021/12/09 02:24:16;;;;;;;51.53;29.42;;;;;;;-0.06;100.00;98118.69;5004145;28;20493;-75
2021/12/09 02:26:46;;;;;;;53.17;29.92;;;;;;;-0.10;100.00;98107.69;5001889;28;20108;-76
2021/12/09 02:29:13;;;;;;;54.00;30.77;;;;;;;-0.04;100.00;98101.22;5004374;28;20026;-76
2021/12/09 02:31:40;;;;;;;51.55;29.67;;;;;;;0.02;100.00;98094.75;5002265;28;20081;-76
2021/12/09 02:34:06;;;;;;;48.40;28.38;;;;;;;0.05;100.00;98095.38;5003472;28;20049;-76
2021/12/09 02:36:37;;;;;;;51.35;28.75;;;;;;;0.06;100.00;98097.00;5007012;28;20105;-76
2021/12/09 02:39:10;;;;;;;53.80;29.75;;;;;;;0.02;100.00;98090.41;5002375;28;20046;-76
2021/12/09 02:41:38;;;;;;;56.30;29.33;;;;;;;0.00;100.00;98087.91;5002218;28;20033;-76
2021/12/09 02:44:07;;;;;;;53.40;28.77;;;;;;;-0.02;100.00;98076.03;5001611;28;20038;-76
2021/12/09 02:46:36;;;;;;;74.13;30.73;;;;;;;-0.11;100.00;98081.88;5003239;28;20095;-76
2021/12/09 02:49:08;;;;;;;53.45;29.20;;;;;;;-0.18;100.00;98083.28;5002436;28;20039;-76
2021/12/09 02:51:35;;;;;;;57.58;30.15;;;;;;;-0.25;100.00;98076.88;5002837;28;20489;-76
2021/12/09 02:54:01;;;;;;;60.72;30.77;;;;;;;-0.27;100.00;98073.56;5001468;28;20034;-77
2021/12/09 02:56:27;;;;;;;79.35;31.65;;;;;;;-0.29;100.00;98070.25;5003660;28;20128;-76
2021/12/09 02:58:52;;;;;;;56.65;29.73;;;;;;;-0.29;100.00;98075.41;5000669;28;20093;-76
2021/12/09 03:01:26;;;;;;;54.10;29.02;;;;;;;-0.24;100.00;98083.72;5004487;28;20509;-76
2021/12/09 03:03:58;;;;;;;56.60;28.30;;;;;;;-0.23;100.00;98090.53;5001086;28;20030;-76
2021/12/09 03:06:36;;;;;;;55.08;29.25;;;;;;;-0.32;100.00;98096.41;5004848;28;20133;-76
2021/12/09 03:09:10;;;;;;;48.72;28.35;;;;;;;-0.33;100.00;98099.91;5001792;28;20467;-76
2021/12/09 03:11:36;;;;;;;54.67;29.05;;;;;;;-0.32;100.00;98104.16;5001992;28;20117;-76
2021/12/09 03:14:03;;;;;;;48.10;27.90;;;;;;;-0.33;100.00;98107.69;5002122;28;20464;-76
2021/12/09 03:16:29;;;;;;;46.88;28.98;;;;;;;-0.30;100.00;98115.25;5003012;28;20088;-77
2021/12/09 03:18:58;;;;;;;47.85;28.17;;;;;;;-0.25;100.00;98116.59;5000923;28;20030;-77
2021/12/09 03:21:31;;;;;;;50.20;29.02;;;;;;;-0.22;100.00;98118.13;5005543;28;20038;-77
2021/12/09 03:24:00;;;;;;;47.58;28.83;;;;;;;-0.19;100.00;98117.91;5001231;28;20869;-77
2021/12/09 03:26:38;;;;;;;49.17;28.27;;;;;;;-0.12;100.00;98113.94;5003090;28;20104;-77
2021/12/09 03:29:08;;;;;;;49.67;27.65;;;;;;;-0.08;100.00;98115.38;5002026;28;20034;-77
2021/12/09 03:31:37;;;;;;;45.33;27.95;;;;;;;-0.05;100.00;98115.97;5001194;28;20402;-77
2021/12/09 03:34:03;;;;;;;44.63;27.63;;;;;;;-0.01;100.00;98107.03;5002182;28;20035;-77
2021/12/09 03:36:29;;;;;;;45.97;27.58;;;;;;;0.03;100.00;98107.63;5001134;28;20102;-77
2021/12/09 03:38:57;;;;;;;47.42;28.60;;;;;;;0.04;100.00;98103.28;5000461;28;20042;-77
2021/12/09 03:41:23;;;;;;;45.65;26.58;;;;;;;0.04;100.00;98103.28;5003370;28;20493;-77
2021/12/09 03:43:49;;;;;;;43.05;26.48;;;;;;;-0.02;100.00;98107.13;4999974;28;20105;-77
2021/12/09 03:46:16;;;;;;;43.05;27.05;;;;;;;-0.07;100.00;98111.84;5003200;28;20029;-77
2021/12/09 03:48:42;;;;;;;41.95;26.65;;;;;;;-0.10;100.00;98118.06;5000499;28;20046;-77
2021/12/09 03:51:08;;;;;;;41.72;27.58;;;;;;;-0.07;100.00;98117.84;5004920;28;20031;-77
2021/12/09 03:53:34;;;;;;;43.83;26.67;;;;;;;-0.12;100.00;98116.53;5002079;28;20034;-77
2021/12/09 03:55:59;;;;;;;40.13;25.65;;;;;;;-0.19;100.00;98112.72;5000500;28;20026;-77
2021/12/09 03:58:25;;;;;;;39.28;25.85;;;;;;;-0.24;100.00;98107.06;5002617;28;20030;-77
2021/12/09 04:00:52;;;;;;;37.53;24.60;;;;;;;-0.28;100.00;98103.00;4999841;28;20080;-77
2021/12/09 04:03:18;;;;;;;36.70;25.30;;;;;;;-0.30;100.00;98099.72;4999986;28;20030;-77
2021/12/09 04:05:48;;;;;;;38.63;24.38;;;;;;;-0.30;100.00;98097.13;5001889;28;20061;-77
2021/12/09 04:08:14;;;;;;;39.83;26.20;;;;;;;-0.27;100.00;98095.13;5000089;28;20026;-76
2021/12/09 04:10:40;;;;;;;40.83;26.60;;;;;;;-0.24;100.00;98094.09;5001750;28;20534;-76
2021/12/09 04:13:06;;;;;;;36.95;24.80;;;;;;;-0.17;100.00;98084.91;5001066;28;20120;-77
2021/12/09 04:15:32;;;;;;;41.90;26.08;;;;;;;-0.12;100.00;98080.22;5001141;28;20125;-77
2021/12/09 04:17:57;;;;;;;45.70;28.38;;;;;;;-0.14;100.00;98085.53;5002292;28;20389;-77
2021/12/09 04:20:23;;;;;;;43.78;26.35;;;;;;;-0.14;100.00;98084.69;5003904;28;20034;-75
2021/12/09 04:22:49;;;;;;;40.17;25.55;;;;;;;-0.12;100.00;98077.66;4999498;28;20030;-77
2021/12/09 04:25:20;;;;;;;41.00;25.95;;;;;;;-0.09;100.00;98092.97;5003121;28;20034;-77
2021/12/09 04:27:47;;;;;;;39.55;26.00;;;;;;;-0.16;100.00;98091.75;4999174;28;20042;-76
2021/12/09 04:30:14;;;;;;;39.50;25.38;;;;;;;-0.19;100.00;98112.72;5002200;28;20045;-77
2021/12/09 04:32:40;;;;;;;36.28;24.15;;;;;;;-0.17;100.00;98127.22;5000208;28;20357;-76
2021/12/09 04:35:07;;;;;;;35.75;23.02;;;;;;;-0.13;100.00;98139.03;5001398;28;20522;-77
2021/12/09 04:37:33;;;;;;;35.90;24.23;;;;;;;-0.06;100.00;98129.06;5001100;28;20034;-77
2021/12/09 04:40:00;;;;;;;35.67;23.13;;;;;;;-0.03;100.00;98118.44;5000079;28;20030;-77
2021/12/09 04:42:27;;;;;;;35.45;23.08;;;;;;;0.01;100.00;98125.06;5001952;28;20048;-77
2021/12/09 04:44:53;;;;;;;36.67;24.50;;;;;;;0.05;100.00;98131.69;4998898;28;20509;-77
2021/12/09 04:47:18;;;;;;;37.45;23.88;;;;;;;0.07;100.00;98129.78;5002577;28;20060;-78
2021/12/09 04:49:44;;;;;;;36.63;24.60;;;;;;;0.07;100.00;98145.34;5000958;28;20509;-76
2021/12/09 04:52:10;;;;;;;36.95;24.60;;;;;;;0.09;100.00;98138.31;5002427;28;20478;-77
2021/12/09 04:54:36;;;;;;;37.88;23.73;;;;;;;0.13;100.00;98133.69;5000530;28;20065;-75
2021/12/09 04:57:05;;;;;;;39.28;25.40;;;;;;;0.12;100.00;98138.06;4999180;28;20544;-76
2021/12/09 04:59:31;;;;;;;40.20;24.75;;;;;;;0.13;100.00;98142.31;5000719;28;20041;-76
2021/12/09 05:01:57;;;;;;;39.90;24.52;;;;;;;0.13;100.00;98150.09;4999194;28;20032;-75
2021/12/09 05:04:23;;;;;;;38.95;25.45;;;;;;;0.15;100.00;98148.22;5002167;28;20038;-76
2021/12/09 05:06:48;;;;;;;45.47;26.65;;;;;;;0.13;100.00;98147.50;4998752;28;20069;-75
2021/12/09 05:09:17;;;;;;;36.20;24.25;;;;;;;0.12;100.00;98152.81;5002007;28;20026;-76
2021/12/09 05:14:09;;;;;;;32.85;22.25;;;;;;;0.01;100.00;98156.16;5000878;28;20030;-75
2021/12/09 05:16:34;;;;;;;30.80;21.20;;;;;;;-0.06;100.00;98154.97;5001077;28;20040;-76
2021/12/09 05:19:00;;;;;;;27.23;19.73;;;;;;;-0.10;100.00;98163.91;5003785;28;20053;-76
2021/12/09 05:21:36;;;;;;;29.80;20.77;;;;;;;-0.13;100.00;98158.94;5008245;28;20099;-76
2021/12/09 05:24:14;;;;;;;31.73;21.77;;;;;;;-0.11;100.00;98167.44;5003239;28;20089;-76
2021/12/09 05:26:47;;;;;;;30.23;21.73;;;;;;;-0.09;100.00;98171.56;5003576;28;20477;-76
2021/12/09 05:29:15;;;;;;;29.77;20.00;;;;;;;-0.10;100.00;98169.09;5005772;28;20037;-77
2021/12/09 05:34:25;;;;;;;29.60;20.73;;;;;;;-0.12;100.00;98168.38;5002975;28;20411;-76
2021/12/09 05:36:52;;;;;;;28.58;20.67;;;;;;;-0.19;100.00;98180.97;5005537;28;20030;-77
2021/12/09 05:39:18;;;;;;;27.95;20.90;;;;;;;-0.24;100.00;98177.03;5003007;28;20535;-77
2021/12/09 05:41:45;;;;;;;29.67;20.65;;;;;;;-0.23;100.00;98179.50;5005377;28;20038;-77
2021/12/09 05:44:12;;;;;;;29.42;20.70;;;;;;;-0.27;100.00;98178.06;5003562;28;20029;-77
2021/12/09 05:46:41;;;;;;;30.67;20.85;;;;;;;-0.35;100.00;98180.38;5003875;28;20089;-76
2021/12/09 05:49:07;;;;;;;28.15;20.48;;;;;;;-0.39;100.00;98193.66;5003283;28;20052;-76
2021/12/09 05:51:33;;;;;;;31.63;21.15;;;;;;;-0.43;100.00;98193.06;5005937;28;20113;-76
2021/12/09 05:53:59;;;;;;;30.92;21.15;;;;;;;-0.41;100.00;98186.81;5003208;28;20088;-76
2021/12/09 05:56:25;;;;;;;29.35;21.08;;;;;;;-0.34;100.00;98187.22;5004342;28;20033;-77
2021/12/09 05:58:50;;;;;;;28.27;20.70;;;;;;;-0.31;100.00;98192.19;5002021;28;20031;-77
2021/12/09 06:01:16;;;;;;;30.77;20.85;;;;;;;-0.28;100.00;98196.31;5004232;28;20034;-76
2021/12/09 06:03:42;;;;;;;25.85;19.48;;;;;;;-0.20;100.00;98201.81;5002532;28;20034;-82
2021/12/09 06:06:08;;;;;;;27.33;19.73;;;;;;;-0.20;100.00;98194.03;4309280;28;10000692;-80
2021/12/09 06:08:36;;;;;;;27.70;19.48;;;;;;;-0.20;100.00;98209.56;4997592;28;20101;-79
2021/12/09 06:11:04;;;;;;;27.95;21.02;;;;;;;-0.28;100.00;98206.69;5003796;28;20044;-79
2021/12/09 06:13:37;;;;;;;29.02;20.35;;;;;;;-0.34;100.00;98209.72;5002552;28;20046;-80
2021/12/09 06:16:04;;;;;;;27.30;19.80;;;;;;;-0.43;100.00;98204.25;5001235;28;20029;-79
2021/12/09 06:18:30;;;;;;;26.60;20.17;;;;;;;-0.51;100.00;98211.72;4998308;28;20121;-81
2021/12/09 06:20:56;;;;;;;27.00;19.60;;;;;;;-0.59;100.00;98216.59;5006837;28;20052;-81
2021/12/09 06:23:21;;;;;;;24.33;19.75;;;;;;;-0.65;100.00;98214.47;5002230;28;20500;-81
2021/12/09 06:25:49;;;;;;;30.15;21.45;;;;;;;-0.65;100.00;98209.28;4999660;28;20085;-82
2021/12/09 06:28:15;;;;;;;30.00;20.20;;;;;;;-0.65;100.00;98214.47;5004853;28;20486;-81
2021/12/09 06:30:41;;;;;;;25.27;18.63;;;;;;;-0.69;100.00;98219.94;5004639;28;20061;-80
2021/12/09 06:33:06;;;;;;;26.02;19.08;;;;;;;-0.72;100.00;98215.81;5007864;28;20097;-81
2021/12/09 06:35:33;;;;;;;25.92;19.65;;;;;;;-0.78;100.00;98223.16;5016434;28;20045;-80
2021/12/09 06:38:00;;;;;;;27.20;20.17;;;;;;;-0.76;100.00;98226.44;5036652;28;20053;-81
2021/12/09 06:40:27;;;;;;;27.85;19.35;;;;;;;-0.78;100.00;98234.34;5002033;28;20613;-81
2021/12/09 06:42:53;;;;;;;26.50;18.75;;;;;;;-0.74;100.00;98230.59;5009298;28;20034;-82
2021/12/09 06:45:21;;;;;;;25.55;18.70;;;;;;;-0.68;100.00;98225.00;5000334;28;20080;-83
2021/12/09 06:47:47;;;;;;;26.10;18.60;;;;;;;-0.67;100.00;98237.03;5001388;28;20561;-81
2021/12/09 06:50:16;;;;;;;29.65;20.10;;;;;;;-0.60;100.00;98237.44;5003794;28;20053;-82
2021/12/09 06:52:42;;;;;;;26.00;17.63;;;;;;;-0.55;100.00;98236.19;5001358;28;20046;-78
2021/12/09 06:55:11;;;;;;;25.30;18.13;;;;;;;-0.49;100.00;98240.97;5000593;28;20025;-81
2021/12/09 06:57:38;;;;;;;26.33;18.48;;;;;;;-0.46;100.00;98240.72;5001014;28;20056;-78
2021/12/09 07:00:10;;;;;;;23.15;17.33;;;;;;;-0.46;100.00;98245.91;5000885;28;20030;-77
2021/12/09 07:02:36;;;;;;;22.20;17.73;;;;;;;-0.39;100.00;98250.66;5002048;28;20224;-78
2021/12/09 07:05:03;;;;;;;23.55;17.00;;;;;;;-0.36;100.00;98250.47;4997533;28;20030;-78
2021/12/09 07:07:29;;;;;;;21.90;16.10;;;;;;;-0.36;100.00;98250.47;4652591;28;9999962;-77
2021/12/09 07:09:55;;;;;;;24.27;17.38;;;;;;;-0.43;100.00;98248.31;5004867;28;20445;-78
2021/12/09 07:12:20;;;;;;;25.75;17.63;;;;;;;-0.39;100.00;98248.06;4999824;28;20041;-79
2021/12/09 07:14:46;;;;;;;21.77;16.38;;;;;;;-0.41;100.00;98253.38;5005073;28;20122;-79
2021/12/09 07:17:11;;;;;;;24.70;17.15;;;;;;;-0.37;100.00;98248.81;5003289;28;20033;-81
2021/12/09 07:19:38;;;;;;;21.52;16.45;;;;;;;-0.34;100.00;98243.41;5006958;28;20434;-80
2021/12/09 07:22:05;;;;;;;21.42;16.65;;;;;;;-0.32;100.00;98244.97;5008782;28;20541;-78
2021/12/09 07:24:31;;;;;;;23.35;17.58;;;;;;;-0.30;100.00;98250.06;5011645;28;20029;-78
2021/12/09 07:26:57;;;;;;;25.80;16.92;;;;;;;-0.30;100.00;98255.22;5004027;28;20038;-80
2021/12/09 07:29:24;;;;;;;24.25;17.73;;;;;;;-0.25;100.00;98253.16;5004040;28;20064;-78
2021/12/09 07:31:50;;;;;;;21.48;17.42;;;;;;;-0.25;100.00;98256.56;5001948;28;20094;-81
2021/12/09 07:34:16;;;;;;;25.85;17.15;;;;;;;-0.30;100.00;98265.59;5005588;28;20510;-81
2021/12/09 07:36:42;;;;;;;23.75;17.40;;;;;;;-0.29;100.00;98268.06;5002358;28;20041;-80
2021/12/09 07:39:08;;;;;;;25.90;17.33;;;;;;;-0.30;100.00;98260.41;5006115;28;20048;-81
2021/12/09 07:41:33;;;;;;;23.75;18.58;;;;;;;-0.34;100.00;98261.53;5002022;28;20486;-81
2021/12/09 07:44:02;;;;;;;24.77;18.83;;;;;;;-0.33;100.00;98276.16;5002298;28;20045;-80
2021/12/09 07:46:28;;;;;;;24.33;18.50;;;;;;;-0.23;100.00;98274.59;5003612;28;20038;-80
2021/12/09 07:48:54;;;;;;;25.35;18.35;;;;;;;-0.13;100.00;98273.03;5003413;28;20402;-80
2021/12/09 07:51:19;;;;;;;26.13;18.40;;;;;;;-0.12;100.00;98277.28;5000865;28;20137;-80
2021/12/09 07:53:45;;;;;;;23.13;17.13;;;;;;;-0.10;100.00;98284.00;5003785;28;20041;-80
2021/12/09 07:56:10;;;;;;;25.48;17.92;;;;;;;-0.08;100.00;98276.13;4999440;28;20034;-79
2021/12/09 07:58:38;;;;;;;25.77;19.20;;;;;;;-0.07;100.00;98278.63;5003561;28;20065;-80
2021/12/09 08:01:04;;;;;;;23.80;18.35;;;;;;;-0.04;100.00;98283.56;5001601;28;20747;-78
2021/12/09 08:03:30;;;;;;;21.83;17.10;;;;;;;0.01;100.00;98288.44;4999049;28;20138;-79
2021/12/09 08:05:56;;;;;;;24.30;17.92;;;;;;;0.02;100.00;98292.69;5004582;28;20609;-78
2021/12/09 08:08:22;;;;;;;26.52;19.17;;;;;;;0.05;100.00;98287.31;5000101;28;20026;-81
2021/12/09 08:10:47;;;;;;;23.85;17.38;;;;;;;0.04;100.00;98296.00;5003822;28;20722;-78
2021/12/09 08:13:13;;;;;;;22.02;17.30;;;;;;;-0.04;100.00;98293.13;5001487;28;20076;-78
2021/12/09 08:15:45;;;;;;;26.35;18.20;;;;;;;-0.07;100.00;98303.72;5006482;28;20420;-83
2021/12/09 08:20:52;;;;;;;26.83;18.50;;;;;;;-0.14;100.00;98307.66;5005213;28;20507;-79
2021/12/09 08:23:18;;;;;;;24.90;17.35;;;;;;;-0.24;100.00;98311.84;5000432;28;20146;-80
2021/12/09 08:25:44;;;;;;;23.65;17.58;;;;;;;-0.30;100.00;98313.09;5003054;28;20129;-80
2021/12/09 08:28:11;;;;;;;25.02;17.25;;;;;;;-0.32;100.00;98304.59;5004128;28;20057;-80
2021/12/09 08:30:38;;;;;;;24.52;17.33;;;;;;;-0.35;100.00;98311.75;5002079;28;20034;-80
2021/12/09 08:33:05;;;;;;;27.58;18.50;;;;;;;-0.33;100.00;98317.63;5002476;28;20057;-82
2021/12/09 08:35:33;;;;;;;26.00;17.98;;;;;;;-0.25;100.00;98326.56;5002621;28;20042;-81
2021/12/09 08:38:00;;;;;;;21.27;16.27;;;;;;;-0.20;100.00;98328.84;5005761;28;20038;-81
2021/12/09 08:40:26;;;;;;;24.17;17.38;;;;;;;-0.22;100.00;98338.47;5001927;28;20042;-79
2021/12/09 08:42:53;;;;;;;28.25;17.48;;;;;;;-0.22;100.00;98330.69;5006223;28;20120;-81
2021/12/09 08:45:20;;;;;;;24.65;17.10;;;;;;;-0.11;100.00;98328.19;5003163;28;20326;-79
2021/12/09 08:47:47;;;;;;;22.00;16.88;;;;;;;-0.09;100.00;98331.50;5004058;28;20073;-79
2021/12/09 08:50:19;;;;;;;23.23;16.30;;;;;;;-0.05;100.00;98332.94;5001432;28;20105;-81
2021/12/09 08:52:45;;;;;;;21.67;15.43;;;;;;;-0.06;100.00;98336.50;5006702;28;20049;-81
2021/12/09 08:55:11;;;;;;;24.27;17.17;;;;;;;-0.02;100.00;98348.31;5004261;28;20049;-81
2021/12/09 08:57:37;;;;;;;21.08;15.48;;;;;;;-0.07;100.00;98345.22;5003143;28;20836;-81
2021/12/09 09:00:07;;;;;;;24.90;16.65;;;;;;;-0.10;100.00;98340.22;5002964;28;20447;-81
2021/12/09 09:02:35;;;;;;;21.88;16.45;;;;;;;-0.11;100.00;98348.94;5002588;28;20069;-81
2021/12/09 09:05:03;;;;;;;25.60;16.80;;;;;;;-0.12;100.00;98342.09;5003068;28;20069;-81
2021/12/09 09:07:29;;;;;;;21.70;15.77;;;;;;;-0.11;100.00;98346.34;5000443;28;20042;-80
2021/12/09 09:09:54;;;;;;;24.90;16.45;;;;;;;-0.06;100.00;98352.84;4997496;28;20132;-81
2021/12/09 09:12:20;;;;;;;20.25;15.82;;;;;;;-0.01;100.00;98344.78;4998169;28;20030;-81
2021/12/09 09:14:46;;;;;;;22.15;17.10;;;;;;;-0.02;100.00;98363.88;5010589;28;20053;-86
2021/12/09 09:17:14;;;;;;;22.58;16.35;;;;;;;0.02;100.00;98370.50;5010658;28;20014;-85
2021/12/09 09:19:39;;;;;;;20.80;16.27;;;;;;;0.05;100.00;98369.47;5004970;28;20030;-83
2021/12/09 09:22:05;;;;;;;21.15;17.73;;;;;;;0.07;100.00;98368.41;5003096;28;20461;-86
2021/12/09 09:24:31;;;;;;;21.60;16.20;;;;;;;0.13;100.00;98372.34;5001971;28;20088;-84
2021/12/09 09:26:57;;;;;;;23.08;17.05;;;;;;;0.19;100.00;98383.13;5001563;28;20034;-83
2021/12/09 09:29:24;;;;;;;22.45;17.75;;;;;;;0.25;100.00;98382.69;5003607;28;20161;-84
2021/12/09 09:31:52;;;;;;;23.92;17.45;;;;;;;0.29;100.00;98389.34;5000933;28;20490;-85
2021/12/09 09:34:17;;;;;;;20.50;16.15;;;;;;;0.40;100.00;98401.56;5001263;28;20110;-84
2021/12/09 09:36:44;;;;;;;21.30;16.27;;;;;;;0.44;100.00;98396.97;5003532;28;20474;-84
2021/12/09 09:39:17;;;;;;;21.95;16.30;;;;;;;0.52;100.00;98407.66;5033925;28;20030;-85
2021/12/09 09:41:55;;;;;;;21.50;15.43;;;;;;;0.55;100.00;98410.03;5002892;28;20046;-86
2021/12/09 09:44:27;;;;;;;22.35;16.48;;;;;;;0.59;100.00;98406.31;5019186;28;20121;-84
2021/12/09 09:46:58;;;;;;;24.42;17.77;;;;;;;0.58;100.00;98409.81;5005599;28;20045;-85
2021/12/09 09:49:24;;;;;;;21.63;16.17;;;;;;;0.61;100.00;98417.38;5004288;28;20454;-85
2021/12/09 09:51:50;;;;;;;22.10;16.48;;;;;;;0.65;100.00;98416.25;5005004;28;20038;-85
2021/12/09 09:54:17;;;;;;;23.83;17.00;;;;;;;0.70;100.00;98414.16;4999653;28;20042;-85
2021/12/09 09:56:43;;;;;;;22.85;17.15;;;;;;;0.69;100.00;98407.28;4999827;28;20039;-84
2021/12/09 09:59:10;;;;;;;20.63;15.30;;;;;;;0.71;100.00;98414.03;5003465;28;20108;-84
2021/12/09 10:01:37;;;;;;;20.00;16.30;;;;;;;0.79;100.00;98413.47;4999871;28;20049;-84
2021/12/09 10:04:26;;;;;;;21.45;16.45;;;;;;;0.79;100.00;98413.47;5005938;28;20380;-84
2021/12/09 10:06:52;;;;;;;21.75;15.90;;;;;;;0.79;100.00;98416.09;5006646;28;20549;-83
2021/12/09 10:09:17;;;;;;;21.80;16.33;;;;;;;0.85;100.00;98407.84;5002449;28;20026;-83
2021/12/09 10:11:44;;;;;;;21.80;16.48;;;;;;;0.88;100.00;98410.25;5006025;28;20477;-80
2021/12/09 10:14:18;;;;;;;19.23;15.48;;;;;;;0.95;100.00;98406.25;5000729;28;20453;-84
2021/12/09 10:16:46;;;;;;;22.05;16.02;;;;;;;0.97;100.00;98401.78;5001453;28;20151;-83
2021/12/09 10:19:20;;;;;;;22.08;17.08;;;;;;;1.00;100.00;98406.72;4990559;28;20034;-84
2021/12/09 10:21:47;;;;;;;21.77;16.70;;;;;;;1.04;100.00;98403.00;5041677;28;20042;-86
2021/12/09 10:24:17;;;;;;;25.52;16.60;;;;;;;1.04;100.00;98392.59;4331508;28;10000723;-82
2021/12/09 10:26:45;;;;;;;23.17;17.67;;;;;;;1.07;100.00;98387.16;5019680;28;20065;-82
2021/12/09 10:29:37;;;;;;;21.77;16.88;;;;;;;1.08;100.00;98385.41;5007377;28;20113;-83
2021/12/09 10:32:11;;;;;;;22.90;16.80;;;;;;;1.08;100.00;98394.03;5006573;28;20049;-84
2021/12/09 10:34:43;;;;;;;22.38;16.13;;;;;;;1.07;100.00;98376.78;5002907;28;20065;-84
2021/12/09 10:37:14;;;;;;;18.35;14.65;;;;;;;1.06;100.00;98380.31;5003417;28;20034;-86
2021/12/09 10:39:55;;;;;;;16.38;13.88;;;;;;;1.00;100.00;98375.56;5005512;28;20059;-85
2021/12/09 10:42:33;;;;;;;19.65;13.50;;;;;;;0.97;100.00;98373.19;5013938;28;20090;-85
2021/12/09 10:45:07;;;;;;;17.90;14.43;;;;;;;0.92;100.00;98370.13;5011184;28;20405;-84
2021/12/09 10:50:41;;;;;;;19.00;14.18;;;;;;;0.95;100.00;98377.66;5018422;23;20181;-83
2021/12/09 10:56:29;;;;;;;18.77;14.70;;;;;;;1.05;100.00;98378.69;5027566;28;20050;-84
2021/12/09 10:59:03;;;;;;;22.70;13.45;;;;;;;1.09;100.00;98369.72;5007386;28;20274;-83
2021/12/09 11:01:30;;;;;;;17.95;14.60;;;;;;;1.12;100.00;98364.28;5006882;28;20046;-81
2021/12/09 11:04:00;;;;;;;19.67;16.13;;;;;;;1.16;100.00;98365.72;5007298;28;20570;-85
2021/12/09 11:06:37;;;;;;;20.60;14.50;;;;;;;1.19;100.00;98360.28;5000596;28;20042;-84
2021/12/09 11:09:08;;;;;;;20.17;14.68;;;;;;;1.23;100.00;98356.53;4998432;28;20489;-84
2021/12/09 11:11:40;;;;;;;17.20;13.80;;;;;;;1.28;100.00;98361.41;5004193;28;20107;-85
2021/12/09 11:14:17;;;;;;;17.15;13.25;;;;;;;1.23;100.00;98361.75;5005222;28;20040;-80
2021/12/09 11:17:03;;;;;;;16.42;13.48;;;;;;;1.22;100.00;98357.47;5009011;28;20045;-81
2021/12/09 11:22:19;;;;;;;19.64;15.00;;;;;;;1.38;100.00;98351.13;4926586;28;10001209;-79
2021/12/09 11:24:49;;;;;;;19.92;13.85;;;;;;;1.41;100.00;98343.13;5000254;28;20246;-79
2021/12/09 11:27:22;;;;;;;19.98;15.02;;;;;;;1.50;100.00;98343.25;5000249;28;20038;-78
2021/12/09 11:29:52;;;;;;;19.35;13.82;;;;;;;1.60;100.00;98353.78;5005412;28;20030;-79
2021/12/09 11:35:18;;;;;;;14.80;12.55;;;;;;;1.81;100.00;98346.97;5023374;28;20097;-83